sensor_id;sensor_type;location;lat;lon;timestamp;P1;durP1;ratioP1;P2;durP2;ratioP2
65753;SDS011;52488;47.502;18.940;2023-03-01T00:00:08;16.50;;;7.70;;
65753;SDS011;52488;47.502;18.940;2023-03-01T00:01:19;12.27;;;6.40;;
65753;SDS011;52488;47.502;18.940;2023-03-01T00:02:24;13.07;;;6.95;;
65753;SDS011;52488;47.502;18.940;2023-03-01T00:03:27;16.48;;;7.93;;
65753;SDS011;52488;47.502;18.940;2023-03-01T00:04:30;14.35;;;7.35;;
65753;SDS011;52488;47.502;18.940;2023-03-01T00:05:33;12.95;;;7.35;;
65753;SDS011;52488;47.502;18.940;2023-03-01T00:06:43;13.00;;;6.93;;
65753;SDS011;52488;47.502;18.940;2023-03-01T00:07:51;13.65;;;7.60;;
65753;SDS011;52488;47.502;18.940;2023-03-01T00:08:56;16.25;;;8.00;;
65753;SDS011;52488;47.502;18.940;2023-03-01T00:09:59;13.85;;;7.35;;
65753;SDS011;52488;47.502;18.940;2023-03-01T00:11:04;15.50;;;8.05;;
65753;SDS011;52488;47.502;18.940;2023-03-01T00:12:09;11.73;;;7.00;;
65753;SDS011;52488;47.502;18.940;2023-03-01T00:13:13;13.62;;;7.62;;
65753;SDS011;52488;47.502;18.940;2023-03-01T00:14:16;15.07;;;7.82;;
65753;SDS011;52488;47.502;18.940;2023-03-01T00:15:19;13.98;;;7.32;;
65753;SDS011;52488;47.502;18.940;2023-03-01T00:16:26;16.15;;;7.82;;
65753;SDS011;52488;47.502;18.940;2023-03-01T00:17:31;15.88;;;7.80;;
65753;SDS011;52488;47.502;18.940;2023-03-01T00:18:37;15.70;;;8.73;;
65753;SDS011;52488;47.502;18.940;2023-03-01T00:19:40;14.98;;;7.75;;
65753;SDS011;52488;47.502;18.940;2023-03-01T00:20:49;16.37;;;8.82;;
65753;SDS011;52488;47.502;18.940;2023-03-01T00:21:56;14.65;;;7.80;;
65753;SDS011;52488;47.502;18.940;2023-03-01T00:22:59;15.43;;;7.80;;
65753;SDS011;52488;47.502;18.940;2023-03-01T00:24:02;18.35;;;9.20;;
65753;SDS011;52488;47.502;18.940;2023-03-01T00:25:06;14.87;;;8.02;;
65753;SDS011;52488;47.502;18.940;2023-03-01T00:26:11;18.33;;;9.00;;
65753;SDS011;52488;47.502;18.940;2023-03-01T00:27:16;15.35;;;8.32;;
65753;SDS011;52488;47.502;18.940;2023-03-01T00:28:21;14.93;;;8.48;;
65753;SDS011;52488;47.502;18.940;2023-03-01T00:29:24;16.48;;;8.88;;
65753;SDS011;52488;47.502;18.940;2023-03-01T00:30:28;16.35;;;8.25;;
65753;SDS011;52488;47.502;18.940;2023-03-01T00:31:31;19.90;;;9.15;;
65753;SDS011;52488;47.502;18.940;2023-03-01T00:32:35;17.48;;;8.80;;
65753;SDS011;52488;47.502;18.940;2023-03-01T00:33:39;16.50;;;8.43;;
65753;SDS011;52488;47.502;18.940;2023-03-01T00:34:42;17.08;;;8.70;;
65753;SDS011;52488;47.502;18.940;2023-03-01T00:35:57;15.70;;;8.05;;
65753;SDS011;52488;47.502;18.940;2023-03-01T00:37:01;15.98;;;7.75;;
65753;SDS011;52488;47.502;18.940;2023-03-01T00:38:08;16.67;;;8.73;;
65753;SDS011;52488;47.502;18.940;2023-03-01T00:39:12;20.05;;;8.52;;
65753;SDS011;52488;47.502;18.940;2023-03-01T00:40:17;15.85;;;8.15;;
65753;SDS011;52488;47.502;18.940;2023-03-01T00:41:22;15.35;;;8.43;;
65753;SDS011;52488;47.502;18.940;2023-03-01T00:42:26;17.12;;;8.55;;
65753;SDS011;52488;47.502;18.940;2023-03-01T00:43:29;15.50;;;7.55;;
65753;SDS011;52488;47.502;18.940;2023-03-01T00:44:32;15.57;;;8.05;;
65753;SDS011;52488;47.502;18.940;2023-03-01T00:45:37;16.87;;;9.20;;
65753;SDS011;52488;47.502;18.940;2023-03-01T00:46:40;16.17;;;8.32;;
65753;SDS011;52488;47.502;18.940;2023-03-01T00:47:43;16.42;;;8.20;;
65753;SDS011;52488;47.502;18.940;2023-03-01T00:48:47;18.17;;;9.13;;
65753;SDS011;52488;47.502;18.940;2023-03-01T00:49:50;16.27;;;8.85;;
65753;SDS011;52488;47.502;18.940;2023-03-01T00:50:54;17.15;;;9.38;;
65753;SDS011;52488;47.502;18.940;2023-03-01T00:51:57;17.50;;;9.35;;
65753;SDS011;52488;47.502;18.940;2023-03-01T00:53:00;16.70;;;9.10;;
65753;SDS011;52488;47.502;18.940;2023-03-01T00:54:03;16.75;;;8.85;;
65753;SDS011;52488;47.502;18.940;2023-03-01T00:55:06;16.55;;;8.90;;
65753;SDS011;52488;47.502;18.940;2023-03-01T00:56:11;19.02;;;8.98;;
65753;SDS011;52488;47.502;18.940;2023-03-01T00:57:15;19.15;;;9.07;;
65753;SDS011;52488;47.502;18.940;2023-03-01T00:58:18;18.77;;;9.23;;
65753;SDS011;52488;47.502;18.940;2023-03-01T00:59:21;19.20;;;9.05;;
65753;SDS011;52488;47.502;18.940;2023-03-01T01:00:24;18.98;;;9.32;;
65753;SDS011;52488;47.502;18.940;2023-03-01T01:01:30;16.05;;;8.88;;
65753;SDS011;52488;47.502;18.940;2023-03-01T01:02:34;16.83;;;9.55;;
65753;SDS011;52488;47.502;18.940;2023-03-01T01:03:38;18.67;;;9.35;;
65753;SDS011;52488;47.502;18.940;2023-03-01T01:04:41;16.40;;;9.02;;
65753;SDS011;52488;47.502;18.940;2023-03-01T01:05:44;15.88;;;9.30;;
65753;SDS011;52488;47.502;18.940;2023-03-01T01:06:47;16.87;;;8.43;;
65753;SDS011;52488;47.502;18.940;2023-03-01T01:07:50;18.85;;;9.85;;
65753;SDS011;52488;47.502;18.940;2023-03-01T01:08:54;20.25;;;9.38;;
65753;SDS011;52488;47.502;18.940;2023-03-01T01:09:57;18.58;;;8.40;;
65753;SDS011;52488;47.502;18.940;2023-03-01T01:11:01;18.92;;;9.38;;
65753;SDS011;52488;47.502;18.940;2023-03-01T01:12:04;18.87;;;9.05;;
65753;SDS011;52488;47.502;18.940;2023-03-01T01:13:08;17.67;;;9.52;;
65753;SDS011;52488;47.502;18.940;2023-03-01T01:14:11;18.35;;;9.80;;
65753;SDS011;52488;47.502;18.940;2023-03-01T01:15:15;18.05;;;8.82;;
65753;SDS011;52488;47.502;18.940;2023-03-01T01:16:19;18.12;;;9.60;;
65753;SDS011;52488;47.502;18.940;2023-03-01T01:17:25;19.25;;;9.73;;
65753;SDS011;52488;47.502;18.940;2023-03-01T01:18:30;17.00;;;9.70;;
65753;SDS011;52488;47.502;18.940;2023-03-01T01:19:33;20.25;;;9.70;;
65753;SDS011;52488;47.502;18.940;2023-03-01T01:20:37;18.50;;;9.27;;
65753;SDS011;52488;47.502;18.940;2023-03-01T01:21:40;16.08;;;8.93;;
65753;SDS011;52488;47.502;18.940;2023-03-01T01:22:45;17.80;;;9.57;;
65753;SDS011;52488;47.502;18.940;2023-03-01T01:23:49;17.50;;;9.75;;
65753;SDS011;52488;47.502;18.940;2023-03-01T01:24:52;17.55;;;9.25;;
65753;SDS011;52488;47.502;18.940;2023-03-01T01:25:55;17.95;;;9.52;;
65753;SDS011;52488;47.502;18.940;2023-03-01T01:26:59;14.93;;;8.23;;
65753;SDS011;52488;47.502;18.940;2023-03-01T01:28:02;15.27;;;8.60;;
65753;SDS011;52488;47.502;18.940;2023-03-01T01:29:06;17.15;;;9.20;;
65753;SDS011;52488;47.502;18.940;2023-03-01T01:30:11;21.00;;;9.00;;
65753;SDS011;52488;47.502;18.940;2023-03-01T01:31:15;15.60;;;8.63;;
65753;SDS011;52488;47.502;18.940;2023-03-01T01:32:19;18.67;;;8.50;;
65753;SDS011;52488;47.502;18.940;2023-03-01T01:33:22;16.27;;;8.65;;
65753;SDS011;52488;47.502;18.940;2023-03-01T01:34:25;17.00;;;8.90;;
65753;SDS011;52488;47.502;18.940;2023-03-01T01:35:28;17.08;;;9.00;;
65753;SDS011;52488;47.502;18.940;2023-03-01T01:36:32;17.42;;;8.15;;
65753;SDS011;52488;47.502;18.940;2023-03-01T01:37:36;15.82;;;9.05;;
65753;SDS011;52488;47.502;18.940;2023-03-01T01:38:39;15.38;;;8.27;;
65753;SDS011;52488;47.502;18.940;2023-03-01T01:39:44;18.23;;;9.15;;
65753;SDS011;52488;47.502;18.940;2023-03-01T01:40:48;14.00;;;7.28;;
65753;SDS011;52488;47.502;18.940;2023-03-01T01:41:52;16.87;;;8.43;;
65753;SDS011;52488;47.502;18.940;2023-03-01T01:42:55;15.73;;;8.98;;
65753;SDS011;52488;47.502;18.940;2023-03-01T01:45:31;16.92;;;8.98;;
65753;SDS011;52488;47.502;18.940;2023-03-01T01:48:20;14.90;;;8.60;;
65753;SDS011;52488;47.502;18.940;2023-03-01T01:50:57;18.80;;;9.38;;
65753;SDS011;52488;47.502;18.940;2023-03-01T01:52:11;18.40;;;8.82;;
65753;SDS011;52488;47.502;18.940;2023-03-01T01:53:19;18.95;;;9.07;;
65753;SDS011;52488;47.502;18.940;2023-03-01T01:54:25;16.23;;;8.00;;
65753;SDS011;52488;47.502;18.940;2023-03-01T01:55:34;16.93;;;8.20;;
65753;SDS011;52488;47.502;18.940;2023-03-01T01:56:43;16.77;;;9.07;;
65753;SDS011;52488;47.502;18.940;2023-03-01T01:57:59;16.10;;;7.75;;
65753;SDS011;52488;47.502;18.940;2023-03-01T01:59:09;16.23;;;7.80;;
65753;SDS011;52488;47.502;18.940;2023-03-01T02:00:20;13.82;;;7.60;;
65753;SDS011;52488;47.502;18.940;2023-03-01T02:01:25;13.45;;;7.30;;
65753;SDS011;52488;47.502;18.940;2023-03-01T02:02:29;14.40;;;7.68;;
65753;SDS011;52488;47.502;18.940;2023-03-01T02:03:33;12.37;;;6.55;;
65753;SDS011;52488;47.502;18.940;2023-03-01T02:04:40;13.57;;;7.30;;
65753;SDS011;52488;47.502;18.940;2023-03-01T02:06:58;18.85;;;7.15;;
65753;SDS011;52488;47.502;18.940;2023-03-01T02:08:18;11.95;;;7.05;;
65753;SDS011;52488;47.502;18.940;2023-03-01T02:09:23;12.43;;;7.15;;
65753;SDS011;52488;47.502;18.940;2023-03-01T02:10:27;14.05;;;7.32;;
65753;SDS011;52488;47.502;18.940;2023-03-01T02:11:31;10.43;;;6.30;;
65753;SDS011;52488;47.502;18.940;2023-03-01T02:12:35;12.73;;;6.95;;
65753;SDS011;52488;47.502;18.940;2023-03-01T02:13:38;19.02;;;7.62;;
65753;SDS011;52488;47.502;18.940;2023-03-01T02:14:41;13.43;;;6.93;;
65753;SDS011;52488;47.502;18.940;2023-03-01T02:15:45;15.02;;;6.85;;
65753;SDS011;52488;47.502;18.940;2023-03-01T02:16:48;11.35;;;6.82;;
65753;SDS011;52488;47.502;18.940;2023-03-01T02:17:52;12.70;;;6.87;;
65753;SDS011;52488;47.502;18.940;2023-03-01T02:18:57;13.68;;;7.15;;
65753;SDS011;52488;47.502;18.940;2023-03-01T02:22:38;13.43;;;6.62;;
65753;SDS011;52488;47.502;18.940;2023-03-01T02:23:41;13.57;;;6.72;;
65753;SDS011;52488;47.502;18.940;2023-03-01T02:27:11;11.73;;;6.55;;
65753;SDS011;52488;47.502;18.940;2023-03-01T02:29:21;13.15;;;7.07;;
65753;SDS011;52488;47.502;18.940;2023-03-01T02:30:29;12.85;;;6.87;;
65753;SDS011;52488;47.502;18.940;2023-03-01T02:31:34;14.00;;;7.22;;
65753;SDS011;52488;47.502;18.940;2023-03-01T02:32:47;15.02;;;6.72;;
65753;SDS011;52488;47.502;18.940;2023-03-01T02:33:51;12.00;;;6.97;;
65753;SDS011;52488;47.502;18.940;2023-03-01T02:34:55;13.02;;;6.62;;
65753;SDS011;52488;47.502;18.940;2023-03-01T02:36:00;11.68;;;6.57;;
65753;SDS011;52488;47.502;18.940;2023-03-01T02:37:11;13.43;;;7.03;;
65753;SDS011;52488;47.502;18.940;2023-03-01T02:38:25;12.23;;;6.20;;
65753;SDS011;52488;47.502;18.940;2023-03-01T02:39:31;11.00;;;6.40;;
65753;SDS011;52488;47.502;18.940;2023-03-01T02:40:40;12.52;;;6.90;;
65753;SDS011;52488;47.502;18.940;2023-03-01T02:41:48;13.73;;;7.20;;
65753;SDS011;52488;47.502;18.940;2023-03-01T02:42:54;11.93;;;6.95;;
65753;SDS011;52488;47.502;18.940;2023-03-01T02:44:01;14.05;;;6.65;;
65753;SDS011;52488;47.502;18.940;2023-03-01T02:45:04;16.35;;;6.78;;
65753;SDS011;52488;47.502;18.940;2023-03-01T02:46:13;12.48;;;6.43;;
65753;SDS011;52488;47.502;18.940;2023-03-01T02:47:19;11.63;;;6.00;;
65753;SDS011;52488;47.502;18.940;2023-03-01T02:48:23;13.13;;;7.10;;
65753;SDS011;52488;47.502;18.940;2023-03-01T02:49:27;13.38;;;6.72;;
65753;SDS011;52488;47.502;18.940;2023-03-01T02:50:39;12.35;;;6.20;;
65753;SDS011;52488;47.502;18.940;2023-03-01T02:55:59;13.43;;;7.07;;
65753;SDS011;52488;47.502;18.940;2023-03-01T02:57:02;12.40;;;6.45;;
65753;SDS011;52488;47.502;18.940;2023-03-01T02:58:06;12.40;;;6.80;;
65753;SDS011;52488;47.502;18.940;2023-03-01T02:59:10;14.65;;;6.90;;
65753;SDS011;52488;47.502;18.940;2023-03-01T03:00:17;13.07;;;6.40;;
65753;SDS011;52488;47.502;18.940;2023-03-01T03:01:23;14.23;;;6.20;;
65753;SDS011;52488;47.502;18.940;2023-03-01T03:02:39;15.18;;;6.80;;
65753;SDS011;52488;47.502;18.940;2023-03-01T03:03:43;11.07;;;6.18;;
65753;SDS011;52488;47.502;18.940;2023-03-01T03:04:46;11.35;;;5.87;;
65753;SDS011;52488;47.502;18.940;2023-03-01T03:05:49;13.27;;;6.47;;
65753;SDS011;52488;47.502;18.940;2023-03-01T03:06:52;12.55;;;6.97;;
65753;SDS011;52488;47.502;18.940;2023-03-01T03:07:56;13.05;;;6.40;;
65753;SDS011;52488;47.502;18.940;2023-03-01T03:09:00;13.82;;;6.78;;
65753;SDS011;52488;47.502;18.940;2023-03-01T03:10:05;12.55;;;6.78;;
65753;SDS011;52488;47.502;18.940;2023-03-01T03:11:16;11.70;;;6.40;;
65753;SDS011;52488;47.502;18.940;2023-03-01T03:12:19;13.20;;;6.93;;
65753;SDS011;52488;47.502;18.940;2023-03-01T03:13:23;12.52;;;6.47;;
65753;SDS011;52488;47.502;18.940;2023-03-01T03:14:30;12.75;;;7.10;;
65753;SDS011;52488;47.502;18.940;2023-03-01T03:15:37;14.07;;;6.68;;
65753;SDS011;52488;47.502;18.940;2023-03-01T03:16:41;12.10;;;6.70;;
65753;SDS011;52488;47.502;18.940;2023-03-01T03:17:49;10.98;;;6.55;;
65753;SDS011;52488;47.502;18.940;2023-03-01T03:18:54;12.57;;;6.45;;
65753;SDS011;52488;47.502;18.940;2023-03-01T03:19:57;13.55;;;6.62;;
65753;SDS011;52488;47.502;18.940;2023-03-01T03:21:00;13.15;;;6.97;;
65753;SDS011;52488;47.502;18.940;2023-03-01T03:22:03;13.77;;;7.20;;
65753;SDS011;52488;47.502;18.940;2023-03-01T03:23:06;15.23;;;7.75;;
65753;SDS011;52488;47.502;18.940;2023-03-01T03:24:09;12.68;;;6.78;;
65753;SDS011;52488;47.502;18.940;2023-03-01T03:25:13;14.23;;;6.60;;
65753;SDS011;52488;47.502;18.940;2023-03-01T03:26:16;13.82;;;6.78;;
65753;SDS011;52488;47.502;18.940;2023-03-01T03:27:19;17.15;;;6.70;;
65753;SDS011;52488;47.502;18.940;2023-03-01T03:28:24;14.45;;;6.85;;
65753;SDS011;52488;47.502;18.940;2023-03-01T03:29:27;12.02;;;6.55;;
65753;SDS011;52488;47.502;18.940;2023-03-01T03:30:30;12.13;;;6.55;;
65753;SDS011;52488;47.502;18.940;2023-03-01T03:31:34;12.43;;;6.75;;
65753;SDS011;52488;47.502;18.940;2023-03-01T03:32:38;12.27;;;6.80;;
65753;SDS011;52488;47.502;18.940;2023-03-01T03:33:45;11.93;;;6.68;;
65753;SDS011;52488;47.502;18.940;2023-03-01T03:34:48;14.07;;;6.32;;
65753;SDS011;52488;47.502;18.940;2023-03-01T03:35:51;11.43;;;6.45;;
65753;SDS011;52488;47.502;18.940;2023-03-01T03:36:55;12.07;;;6.57;;
65753;SDS011;52488;47.502;18.940;2023-03-01T03:38:05;12.20;;;6.82;;
65753;SDS011;52488;47.502;18.940;2023-03-01T03:39:11;13.73;;;6.95;;
65753;SDS011;52488;47.502;18.940;2023-03-01T03:40:15;14.13;;;7.25;;
65753;SDS011;52488;47.502;18.940;2023-03-01T03:41:18;14.98;;;7.50;;
65753;SDS011;52488;47.502;18.940;2023-03-01T03:42:21;11.25;;;6.43;;
65753;SDS011;52488;47.502;18.940;2023-03-01T03:43:24;13.48;;;7.03;;
65753;SDS011;52488;47.502;18.940;2023-03-01T03:44:27;11.25;;;6.60;;
65753;SDS011;52488;47.502;18.940;2023-03-01T03:45:31;12.45;;;7.00;;
65753;SDS011;52488;47.502;18.940;2023-03-01T03:46:36;10.50;;;6.22;;
65753;SDS011;52488;47.502;18.940;2023-03-01T03:47:39;14.25;;;6.82;;
65753;SDS011;52488;47.502;18.940;2023-03-01T03:48:44;11.43;;;6.40;;
65753;SDS011;52488;47.502;18.940;2023-03-01T03:49:48;11.07;;;6.47;;
65753;SDS011;52488;47.502;18.940;2023-03-01T03:50:52;13.48;;;7.18;;
65753;SDS011;52488;47.502;18.940;2023-03-01T03:51:57;14.25;;;7.12;;
65753;SDS011;52488;47.502;18.940;2023-03-01T03:53:00;12.43;;;6.82;;
65753;SDS011;52488;47.502;18.940;2023-03-01T03:54:04;12.00;;;6.82;;
65753;SDS011;52488;47.502;18.940;2023-03-01T03:55:08;14.70;;;7.45;;
65753;SDS011;52488;47.502;18.940;2023-03-01T03:56:13;11.25;;;6.47;;
65753;SDS011;52488;47.502;18.940;2023-03-01T03:57:16;13.38;;;6.43;;
65753;SDS011;52488;47.502;18.940;2023-03-01T03:58:20;13.57;;;7.03;;
65753;SDS011;52488;47.502;18.940;2023-03-01T03:59:25;11.27;;;6.35;;
65753;SDS011;52488;47.502;18.940;2023-03-01T04:00:28;16.90;;;7.40;;
65753;SDS011;52488;47.502;18.940;2023-03-01T04:01:32;14.27;;;7.28;;
65753;SDS011;52488;47.502;18.940;2023-03-01T04:02:35;12.30;;;6.68;;
65753;SDS011;52488;47.502;18.940;2023-03-01T04:03:38;12.48;;;6.78;;
65753;SDS011;52488;47.502;18.940;2023-03-01T04:04:41;13.75;;;6.95;;
65753;SDS011;52488;47.502;18.940;2023-03-01T04:05:44;12.40;;;6.50;;
65753;SDS011;52488;47.502;18.940;2023-03-01T04:06:49;11.73;;;7.15;;
65753;SDS011;52488;47.502;18.940;2023-03-01T04:07:52;12.27;;;6.70;;
65753;SDS011;52488;47.502;18.940;2023-03-01T04:09:03;11.88;;;7.18;;
65753;SDS011;52488;47.502;18.940;2023-03-01T04:10:08;14.57;;;7.32;;
65753;SDS011;52488;47.502;18.940;2023-03-01T04:11:16;13.55;;;7.18;;
65753;SDS011;52488;47.502;18.940;2023-03-01T04:12:28;13.55;;;6.30;;
65753;SDS011;52488;47.502;18.940;2023-03-01T04:13:32;13.93;;;7.07;;
65753;SDS011;52488;47.502;18.940;2023-03-01T04:14:35;12.52;;;7.03;;
65753;SDS011;52488;47.502;18.940;2023-03-01T04:15:43;16.65;;;7.30;;
65753;SDS011;52488;47.502;18.940;2023-03-01T04:16:46;14.38;;;7.20;;
65753;SDS011;52488;47.502;18.940;2023-03-01T04:17:50;12.27;;;6.65;;
65753;SDS011;52488;47.502;18.940;2023-03-01T04:18:57;14.55;;;7.55;;
65753;SDS011;52488;47.502;18.940;2023-03-01T04:20:02;14.90;;;7.85;;
65753;SDS011;52488;47.502;18.940;2023-03-01T04:21:08;14.30;;;7.07;;
65753;SDS011;52488;47.502;18.940;2023-03-01T04:22:12;15.90;;;6.75;;
65753;SDS011;52488;47.502;18.940;2023-03-01T04:23:19;13.70;;;7.25;;
65753;SDS011;52488;47.502;18.940;2023-03-01T04:24:23;14.60;;;7.32;;
65753;SDS011;52488;47.502;18.940;2023-03-01T04:25:26;11.52;;;6.45;;
65753;SDS011;52488;47.502;18.940;2023-03-01T04:26:29;12.80;;;6.90;;
65753;SDS011;52488;47.502;18.940;2023-03-01T04:27:33;13.27;;;7.47;;
65753;SDS011;52488;47.502;18.940;2023-03-01T04:28:38;14.32;;;7.57;;
65753;SDS011;52488;47.502;18.940;2023-03-01T04:29:43;14.60;;;7.65;;
65753;SDS011;52488;47.502;18.940;2023-03-01T04:30:46;16.40;;;7.50;;
65753;SDS011;52488;47.502;18.940;2023-03-01T04:31:49;14.20;;;7.12;;
65753;SDS011;52488;47.502;18.940;2023-03-01T04:32:53;14.02;;;7.72;;
65753;SDS011;52488;47.502;18.940;2023-03-01T04:33:56;17.15;;;7.62;;
65753;SDS011;52488;47.502;18.940;2023-03-01T04:34:59;13.93;;;7.35;;
65753;SDS011;52488;47.502;18.940;2023-03-01T04:36:02;14.55;;;7.85;;
65753;SDS011;52488;47.502;18.940;2023-03-01T04:37:07;17.27;;;7.82;;
65753;SDS011;52488;47.502;18.940;2023-03-01T04:38:11;15.85;;;8.00;;
65753;SDS011;52488;47.502;18.940;2023-03-01T04:39:15;14.32;;;7.53;;
65753;SDS011;52488;47.502;18.940;2023-03-01T04:40:18;16.73;;;8.05;;
65753;SDS011;52488;47.502;18.940;2023-03-01T04:41:22;14.00;;;8.00;;
65753;SDS011;52488;47.502;18.940;2023-03-01T04:42:27;12.23;;;7.40;;
65753;SDS011;52488;47.502;18.940;2023-03-01T04:43:30;16.05;;;7.82;;
65753;SDS011;52488;47.502;18.940;2023-03-01T04:44:33;15.35;;;7.72;;
65753;SDS011;52488;47.502;18.940;2023-03-01T04:45:36;13.98;;;7.87;;
65753;SDS011;52488;47.502;18.940;2023-03-01T04:46:40;15.02;;;7.60;;
65753;SDS011;52488;47.502;18.940;2023-03-01T04:47:43;14.57;;;7.78;;
65753;SDS011;52488;47.502;18.940;2023-03-01T04:48:49;14.23;;;8.00;;
65753;SDS011;52488;47.502;18.940;2023-03-01T04:49:53;16.48;;;7.93;;
65753;SDS011;52488;47.502;18.940;2023-03-01T04:50:56;16.98;;;8.15;;
65753;SDS011;52488;47.502;18.940;2023-03-01T04:51:59;13.02;;;7.00;;
65753;SDS011;52488;47.502;18.940;2023-03-01T04:53:07;14.15;;;7.65;;
65753;SDS011;52488;47.502;18.940;2023-03-01T04:54:10;16.50;;;7.40;;
65753;SDS011;52488;47.502;18.940;2023-03-01T04:55:13;14.43;;;7.68;;
65753;SDS011;52488;47.502;18.940;2023-03-01T04:56:16;15.18;;;7.55;;
65753;SDS011;52488;47.502;18.940;2023-03-01T04:57:20;15.27;;;8.25;;
65753;SDS011;52488;47.502;18.940;2023-03-01T04:58:24;14.68;;;7.43;;
65753;SDS011;52488;47.502;18.940;2023-03-01T04:59:29;13.80;;;7.78;;
65753;SDS011;52488;47.502;18.940;2023-03-01T05:00:32;15.55;;;7.55;;
65753;SDS011;52488;47.502;18.940;2023-03-01T05:01:36;16.60;;;8.18;;
65753;SDS011;52488;47.502;18.940;2023-03-01T05:02:39;13.23;;;7.62;;
65753;SDS011;52488;47.502;18.940;2023-03-01T05:03:43;15.23;;;7.55;;
65753;SDS011;52488;47.502;18.940;2023-03-01T05:04:47;14.27;;;7.93;;
65753;SDS011;52488;47.502;18.940;2023-03-01T05:05:51;15.20;;;7.53;;
65753;SDS011;52488;47.502;18.940;2023-03-01T05:06:56;14.00;;;7.32;;
65753;SDS011;52488;47.502;18.940;2023-03-01T05:08:02;14.25;;;7.68;;
65753;SDS011;52488;47.502;18.940;2023-03-01T05:09:10;16.27;;;7.82;;
65753;SDS011;52488;47.502;18.940;2023-03-01T05:10:13;13.82;;;8.15;;
65753;SDS011;52488;47.502;18.940;2023-03-01T05:11:18;12.50;;;6.95;;
65753;SDS011;52488;47.502;18.940;2023-03-01T05:12:21;14.98;;;7.90;;
65753;SDS011;52488;47.502;18.940;2023-03-01T05:13:24;16.40;;;7.75;;
65753;SDS011;52488;47.502;18.940;2023-03-01T05:14:27;12.45;;;7.20;;
65753;SDS011;52488;47.502;18.940;2023-03-01T05:15:31;13.15;;;7.43;;
65753;SDS011;52488;47.502;18.940;2023-03-01T05:16:35;13.48;;;7.35;;
65753;SDS011;52488;47.502;18.940;2023-03-01T05:17:39;13.65;;;7.75;;
65753;SDS011;52488;47.502;18.940;2023-03-01T05:18:45;16.25;;;7.75;;
65753;SDS011;52488;47.502;18.940;2023-03-01T05:19:48;14.48;;;7.60;;
65753;SDS011;52488;47.502;18.940;2023-03-01T05:20:52;16.10;;;8.10;;
65753;SDS011;52488;47.502;18.940;2023-03-01T05:21:58;14.93;;;7.72;;
65753;SDS011;52488;47.502;18.940;2023-03-01T05:23:06;15.20;;;7.82;;
65753;SDS011;52488;47.502;18.940;2023-03-01T05:24:09;14.68;;;7.50;;
65753;SDS011;52488;47.502;18.940;2023-03-01T05:25:14;13.68;;;7.18;;
65753;SDS011;52488;47.502;18.940;2023-03-01T05:26:18;17.17;;;7.72;;
65753;SDS011;52488;47.502;18.940;2023-03-01T05:27:30;14.30;;;7.15;;
65753;SDS011;52488;47.502;18.940;2023-03-01T05:28:34;16.27;;;7.68;;
65753;SDS011;52488;47.502;18.940;2023-03-01T05:29:37;15.25;;;7.35;;
65753;SDS011;52488;47.502;18.940;2023-03-01T05:30:41;15.57;;;7.82;;
65753;SDS011;52488;47.502;18.940;2023-03-01T05:31:45;15.65;;;7.35;;
65753;SDS011;52488;47.502;18.940;2023-03-01T05:32:49;18.62;;;8.02;;
65753;SDS011;52488;47.502;18.940;2023-03-01T05:33:58;13.25;;;7.60;;
65753;SDS011;52488;47.502;18.940;2023-03-01T05:35:01;15.38;;;7.53;;
65753;SDS011;52488;47.502;18.940;2023-03-01T05:36:05;13.82;;;7.57;;
65753;SDS011;52488;47.502;18.940;2023-03-01T05:37:09;14.35;;;7.45;;
65753;SDS011;52488;47.502;18.940;2023-03-01T05:38:12;14.32;;;7.43;;
65753;SDS011;52488;47.502;18.940;2023-03-01T05:39:16;14.82;;;7.47;;
65753;SDS011;52488;47.502;18.940;2023-03-01T05:40:20;15.23;;;7.78;;
65753;SDS011;52488;47.502;18.940;2023-03-01T05:41:27;14.85;;;7.20;;
65753;SDS011;52488;47.502;18.940;2023-03-01T05:42:30;11.77;;;7.47;;
65753;SDS011;52488;47.502;18.940;2023-03-01T05:43:33;13.68;;;7.43;;
65753;SDS011;52488;47.502;18.940;2023-03-01T05:44:36;12.98;;;7.40;;
65753;SDS011;52488;47.502;18.940;2023-03-01T05:45:40;13.90;;;6.93;;
65753;SDS011;52488;47.502;18.940;2023-03-01T05:46:44;13.75;;;6.90;;
65753;SDS011;52488;47.502;18.940;2023-03-01T05:47:47;14.80;;;8.00;;
65753;SDS011;52488;47.502;18.940;2023-03-01T05:48:52;15.23;;;7.62;;
65753;SDS011;52488;47.502;18.940;2023-03-01T05:49:55;16.95;;;7.90;;
65753;SDS011;52488;47.502;18.940;2023-03-01T05:50:59;17.45;;;8.57;;
65753;SDS011;52488;47.502;18.940;2023-03-01T05:52:03;15.25;;;7.10;;
65753;SDS011;52488;47.502;18.940;2023-03-01T05:53:07;13.50;;;7.62;;
65753;SDS011;52488;47.502;18.940;2023-03-01T05:54:18;12.13;;;6.78;;
65753;SDS011;52488;47.502;18.940;2023-03-01T05:55:22;15.55;;;6.97;;
65753;SDS011;52488;47.502;18.940;2023-03-01T05:56:25;12.98;;;7.15;;
65753;SDS011;52488;47.502;18.940;2023-03-01T05:57:29;14.40;;;7.50;;
65753;SDS011;52488;47.502;18.940;2023-03-01T05:58:33;14.52;;;7.45;;
65753;SDS011;52488;47.502;18.940;2023-03-01T05:59:36;21.40;;;8.18;;
65753;SDS011;52488;47.502;18.940;2023-03-01T06:00:39;13.85;;;8.00;;
65753;SDS011;52488;47.502;18.940;2023-03-01T06:01:43;13.90;;;7.32;;
65753;SDS011;52488;47.502;18.940;2023-03-01T06:02:46;15.68;;;7.85;;
65753;SDS011;52488;47.502;18.940;2023-03-01T06:03:49;13.32;;;7.80;;
65753;SDS011;52488;47.502;18.940;2023-03-01T06:04:52;16.10;;;7.95;;
65753;SDS011;52488;47.502;18.940;2023-03-01T06:05:56;14.02;;;8.15;;
65753;SDS011;52488;47.502;18.940;2023-03-01T06:06:59;15.75;;;7.47;;
65753;SDS011;52488;47.502;18.940;2023-03-01T06:08:03;14.05;;;7.97;;
65753;SDS011;52488;47.502;18.940;2023-03-01T06:09:06;12.50;;;6.90;;
65753;SDS011;52488;47.502;18.940;2023-03-01T06:10:12;17.12;;;7.95;;
65753;SDS011;52488;47.502;18.940;2023-03-01T06:11:17;13.95;;;7.50;;
65753;SDS011;52488;47.502;18.940;2023-03-01T06:12:19;15.73;;;7.87;;
65753;SDS011;52488;47.502;18.940;2023-03-01T06:13:23;16.12;;;8.18;;
65753;SDS011;52488;47.502;18.940;2023-03-01T06:14:26;14.93;;;7.70;;
65753;SDS011;52488;47.502;18.940;2023-03-01T06:15:29;15.23;;;7.43;;
65753;SDS011;52488;47.502;18.940;2023-03-01T06:16:33;14.40;;;7.80;;
65753;SDS011;52488;47.502;18.940;2023-03-01T06:17:36;15.80;;;8.32;;
65753;SDS011;52488;47.502;18.940;2023-03-01T06:18:43;16.23;;;7.80;;
65753;SDS011;52488;47.502;18.940;2023-03-01T06:19:46;18.05;;;7.45;;
65753;SDS011;52488;47.502;18.940;2023-03-01T06:20:53;15.52;;;7.90;;
65753;SDS011;52488;47.502;18.940;2023-03-01T06:21:57;15.48;;;7.97;;
65753;SDS011;52488;47.502;18.940;2023-03-01T06:23:00;12.13;;;7.05;;
65753;SDS011;52488;47.502;18.940;2023-03-01T06:24:03;11.90;;;7.37;;
65753;SDS011;52488;47.502;18.940;2023-03-01T06:25:08;12.85;;;7.43;;
65753;SDS011;52488;47.502;18.940;2023-03-01T06:26:13;13.70;;;7.15;;
65753;SDS011;52488;47.502;18.940;2023-03-01T06:27:16;16.02;;;7.47;;
65753;SDS011;52488;47.502;18.940;2023-03-01T06:28:20;13.25;;;6.80;;
65753;SDS011;52488;47.502;18.940;2023-03-01T06:29:24;16.20;;;7.87;;
65753;SDS011;52488;47.502;18.940;2023-03-01T06:30:27;13.00;;;7.10;;
65753;SDS011;52488;47.502;18.940;2023-03-01T06:31:30;13.62;;;7.62;;
65753;SDS011;52488;47.502;18.940;2023-03-01T06:32:33;14.50;;;7.53;;
65753;SDS011;52488;47.502;18.940;2023-03-01T06:33:36;13.38;;;7.40;;